Stoutsville, Ohio
Current Conditions -  °F | °C
As of 8:53 AM on Thursday 29 Jan 2015 (Local Time) from KLHQ Reporting Station
Light Rain Light Rain  
Wind Chill: 27°   Ceiling: 3800
Heat Index: 34°   Visibility: 7mi
Dew Point: 27°   Wind: 9mph
Humidity: 75%   Direction: 140°SE
Pressure: 29.9"   Gusts: NA
Location:  39.6°N, 82.83°W
Report Text: KLHQ 291353Z AUTO 14008KT 7SM -RA BKN038 OVC070 01/M03 A2990 RMK AO2 SLP136 P0003 T00111028
Loading
Personal Weather Stations






























Interactive Weather Map New forecast layout! Learn more

10-Day Weather Forecast

Advertisements
Track Severe Weather on mobile